sensor_id;sensor_type;location;lat;lon;timestamp;temperature;humidity
2190;DHT22;1101;51.056;7.262;2022-09-04T00:01:44;16.30;76.10
2190;DHT22;1101;51.056;7.262;2022-09-04T00:04:23;16.30;76.40
2190;DHT22;1101;51.056;7.262;2022-09-04T00:07:01;16.20;76.30
2190;DHT22;1101;51.056;7.262;2022-09-04T00:09:37;16.20;76.30
2190;DHT22;1101;51.056;7.262;2022-09-04T00:12:08;16.20;76.40
2190;DHT22;1101;51.056;7.262;2022-09-04T00:14:44;16.20;76.40
2190;DHT22;1101;51.056;7.262;2022-09-04T00:17:18;16.20;76.40
2190;DHT22;1101;51.056;7.262;2022-09-04T00:19:51;16.20;76.40
2190;DHT22;1101;51.056;7.262;2022-09-04T00:22:28;16.20;76.50
2190;DHT22;1101;51.056;7.262;2022-09-04T00:25:04;16.10;76.30
2190;DHT22;1101;51.056;7.262;2022-09-04T00:27:37;16.10;76.30
2190;DHT22;1101;51.056;7.262;2022-09-04T00:30:14;16.10;76.30
2190;DHT22;1101;51.056;7.262;2022-09-04T00:32:51;16.10;76.40
2190;DHT22;1101;51.056;7.262;2022-09-04T00:35:22;16.00;76.30
2190;DHT22;1101;51.056;7.262;2022-09-04T00:37:55;16.00;76.30
2190;DHT22;1101;51.056;7.262;2022-09-04T00:40:27;16.00;76.30
2190;DHT22;1101;51.056;7.262;2022-09-04T00:43:25;15.90;76.30
2190;DHT22;1101;51.056;7.262;2022-09-04T00:46:22;15.90;76.50
2190;DHT22;1101;51.056;7.262;2022-09-04T00:49:19;15.80;76.40
2190;DHT22;1101;51.056;7.262;2022-09-04T00:51:54;15.80;76.40
2190;DHT22;1101;51.056;7.262;2022-09-04T00:54:38;15.80;76.50
2190;DHT22;1101;51.056;7.262;2022-09-04T01:00:24;15.80;76.60
2190;DHT22;1101;51.056;7.262;2022-09-04T01:03:14;15.70;76.50
2190;DHT22;1101;51.056;7.262;2022-09-04T01:06:03;15.70;76.50
2190;DHT22;1101;51.056;7.262;2022-09-04T01:08:46;15.60;76.40
2190;DHT22;1101;51.056;7.262;2022-09-04T01:11:29;15.60;76.50
2190;DHT22;1101;51.056;7.262;2022-09-04T01:14:07;15.60;76.40
2190;DHT22;1101;51.056;7.262;2022-09-04T01:16:44;15.50;76.40
2190;DHT22;1101;51.056;7.262;2022-09-04T01:19:29;15.50;76.50
2190;DHT22;1101;51.056;7.262;2022-09-04T01:22:16;15.50;76.60
2190;DHT22;1101;51.056;7.262;2022-09-04T01:25:07;15.40;76.60
2190;DHT22;1101;51.056;7.262;2022-09-04T01:27:43;15.40;76.60
2190;DHT22;1101;51.056;7.262;2022-09-04T01:30:18;15.40;76.70
2190;DHT22;1101;51.056;7.262;2022-09-04T01:33:00;15.40;76.70
2190;DHT22;1101;51.056;7.262;2022-09-04T01:35:34;15.40;76.80
2190;DHT22;1101;51.056;7.262;2022-09-04T01:38:17;15.30;76.80
2190;DHT22;1101;51.056;7.262;2022-09-04T01:40:50;15.30;76.80
2190;DHT22;1101;51.056;7.262;2022-09-04T01:43:22;15.30;76.80
2190;DHT22;1101;51.056;7.262;2022-09-04T01:46:20;15.30;76.80
2190;DHT22;1101;51.056;7.262;2022-09-04T01:48:56;15.30;76.80
2190;DHT22;1101;51.056;7.262;2022-09-04T01:51:33;15.20;76.70
2190;DHT22;1101;51.056;7.262;2022-09-04T01:54:27;15.20;76.80
2190;DHT22;1101;51.056;7.262;2022-09-04T01:57:07;15.20;76.90
2190;DHT22;1101;51.056;7.262;2022-09-04T01:59:47;15.20;76.90
2190;DHT22;1101;51.056;7.262;2022-09-04T02:02:23;15.10;76.90
2190;DHT22;1101;51.056;7.262;2022-09-04T02:05:00;15.10;76.90
2190;DHT22;1101;51.056;7.262;2022-09-04T02:07:40;15.10;77.10
2190;DHT22;1101;51.056;7.262;2022-09-04T02:10:21;15.10;77.00
2190;DHT22;1101;51.056;7.262;2022-09-04T02:12:59;15.10;77.00
2190;DHT22;1101;51.056;7.262;2022-09-04T02:15:40;15.10;77.10
2190;DHT22;1101;51.056;7.262;2022-09-04T02:18:18;15.10;77.10
2190;DHT22;1101;51.056;7.262;2022-09-04T02:20:58;15.10;77.10
2190;DHT22;1101;51.056;7.262;2022-09-04T02:23:32;15.00;76.90
2190;DHT22;1101;51.056;7.262;2022-09-04T02:26:08;15.00;77.00
2190;DHT22;1101;51.056;7.262;2022-09-04T02:28:46;15.00;77.00
2190;DHT22;1101;51.056;7.262;2022-09-04T02:31:25;15.00;77.00
2190;DHT22;1101;51.056;7.262;2022-09-04T02:34:05;15.00;77.10
2190;DHT22;1101;51.056;7.262;2022-09-04T02:36:40;14.90;77.00
2190;DHT22;1101;51.056;7.262;2022-09-04T02:39:18;14.90;77.00
2190;DHT22;1101;51.056;7.262;2022-09-04T02:41:58;14.80;77.00
2190;DHT22;1101;51.056;7.262;2022-09-04T02:44:38;14.80;77.00
2190;DHT22;1101;51.056;7.262;2022-09-04T02:47:18;14.70;77.10
2190;DHT22;1101;51.056;7.262;2022-09-04T02:49:56;14.70;77.10
2190;DHT22;1101;51.056;7.262;2022-09-04T02:52:39;14.60;77.00
2190;DHT22;1101;51.056;7.262;2022-09-04T02:55:19;14.60;77.10
2190;DHT22;1101;51.056;7.262;2022-09-04T02:57:58;14.60;77.20
2190;DHT22;1101;51.056;7.262;2022-09-04T03:00:37;14.60;77.20
2190;DHT22;1101;51.056;7.262;2022-09-04T03:03:13;14.60;77.30
2190;DHT22;1101;51.056;7.262;2022-09-04T03:05:48;14.60;77.40
2190;DHT22;1101;51.056;7.262;2022-09-04T03:08:20;14.50;77.30
2190;DHT22;1101;51.056;7.262;2022-09-04T03:10:54;14.50;77.30
2190;DHT22;1101;51.056;7.262;2022-09-04T03:13:28;14.50;77.30
2190;DHT22;1101;51.056;7.262;2022-09-04T03:16:02;14.50;77.30
2190;DHT22;1101;51.056;7.262;2022-09-04T03:18:50;14.50;77.40
2190;DHT22;1101;51.056;7.262;2022-09-04T03:21:22;14.50;77.50
2190;DHT22;1101;51.056;7.262;2022-09-04T03:23:57;14.40;77.50
2190;DHT22;1101;51.056;7.262;2022-09-04T03:26:29;14.40;77.50
2190;DHT22;1101;51.056;7.262;2022-09-04T03:29:02;14.50;77.60
2190;DHT22;1101;51.056;7.262;2022-09-04T03:31:39;14.40;77.50
2190;DHT22;1101;51.056;7.262;2022-09-04T03:34:28;14.40;77.50
2190;DHT22;1101;51.056;7.262;2022-09-04T03:37:18;14.40;77.60
2190;DHT22;1101;51.056;7.262;2022-09-04T03:40:00;14.40;77.60
2190;DHT22;1101;51.056;7.262;2022-09-04T03:42:37;14.40;77.70
2190;DHT22;1101;51.056;7.262;2022-09-04T03:45:16;14.30;77.60
2190;DHT22;1101;51.056;7.262;2022-09-04T03:48:00;14.40;77.80
2190;DHT22;1101;51.056;7.262;2022-09-04T03:50:45;14.40;77.80
2190;DHT22;1101;51.056;7.262;2022-09-04T03:53:21;14.30;77.70
2190;DHT22;1101;51.056;7.262;2022-09-04T03:59:00;14.30;77.70
2190;DHT22;1101;51.056;7.262;2022-09-04T04:01:39;14.30;77.90
2190;DHT22;1101;51.056;7.262;2022-09-04T04:04:34;14.30;77.90
2190;DHT22;1101;51.056;7.262;2022-09-04T04:07:14;14.30;78.00
2190;DHT22;1101;51.056;7.262;2022-09-04T04:09:58;14.30;78.10
2190;DHT22;1101;51.056;7.262;2022-09-04T04:12:44;14.30;78.10
2190;DHT22;1101;51.056;7.262;2022-09-04T04:15:26;14.30;78.20
2190;DHT22;1101;51.056;7.262;2022-09-04T04:18:10;14.30;78.20
2190;DHT22;1101;51.056;7.262;2022-09-04T04:20:43;14.30;78.20
2190;DHT22;1101;51.056;7.262;2022-09-04T04:23:40;14.30;78.30
2190;DHT22;1101;51.056;7.262;2022-09-04T04:26:16;14.30;78.30
2190;DHT22;1101;51.056;7.262;2022-09-04T04:29:03;14.20;78.30
2190;DHT22;1101;51.056;7.262;2022-09-04T04:31:44;14.30;78.30
2190;DHT22;1101;51.056;7.262;2022-09-04T04:34:41;14.20;78.20
2190;DHT22;1101;51.056;7.262;2022-09-04T04:37:18;14.20;78.30
2190;DHT22;1101;51.056;7.262;2022-09-04T04:39:52;14.20;79.10
2190;DHT22;1101;51.056;7.262;2022-09-04T04:42:28;14.20;78.50
2190;DHT22;1101;51.056;7.262;2022-09-04T04:45:13;14.20;78.40
2190;DHT22;1101;51.056;7.262;2022-09-04T04:51:07;14.10;78.40
2190;DHT22;1101;51.056;7.262;2022-09-04T04:53:45;14.10;78.40
2190;DHT22;1101;51.056;7.262;2022-09-04T04:56:22;14.10;78.50
2190;DHT22;1101;51.056;7.262;2022-09-04T04:59:00;14.10;78.60
2190;DHT22;1101;51.056;7.262;2022-09-04T05:01:38;14.10;78.90
2190;DHT22;1101;51.056;7.262;2022-09-04T05:04:15;14.10;79.10
2190;DHT22;1101;51.056;7.262;2022-09-04T05:06:50;14.10;79.90
2190;DHT22;1101;51.056;7.262;2022-09-04T05:09:27;14.20;79.40
2190;DHT22;1101;51.056;7.262;2022-09-04T05:12:06;14.20;79.40
2190;DHT22;1101;51.056;7.262;2022-09-04T05:14:45;14.30;79.20
2190;DHT22;1101;51.056;7.262;2022-09-04T05:17:21;14.30;78.90
2190;DHT22;1101;51.056;7.262;2022-09-04T05:20:11;14.30;79.00
2190;DHT22;1101;51.056;7.262;2022-09-04T05:22:45;14.30;79.00
2190;DHT22;1101;51.056;7.262;2022-09-04T05:25:20;14.30;78.90
2190;DHT22;1101;51.056;7.262;2022-09-04T05:27:58;14.30;79.00
2190;DHT22;1101;51.056;7.262;2022-09-04T05:30:35;14.30;79.20
2190;DHT22;1101;51.056;7.262;2022-09-04T05:33:12;14.40;79.50
2190;DHT22;1101;51.056;7.262;2022-09-04T05:35:47;14.40;79.40
2190;DHT22;1101;51.056;7.262;2022-09-04T05:38:22;14.40;79.30
2190;DHT22;1101;51.056;7.262;2022-09-04T05:41:03;14.50;79.20
2190;DHT22;1101;51.056;7.262;2022-09-04T05:43:48;14.50;79.10
2190;DHT22;1101;51.056;7.262;2022-09-04T05:46:29;14.50;79.40
2190;DHT22;1101;51.056;7.262;2022-09-04T05:49:02;14.60;79.20
2190;DHT22;1101;51.056;7.262;2022-09-04T05:52:07;14.60;79.00
2190;DHT22;1101;51.056;7.262;2022-09-04T05:54:54;14.60;79.10
2190;DHT22;1101;51.056;7.262;2022-09-04T05:57:35;14.70;79.10
2190;DHT22;1101;51.056;7.262;2022-09-04T06:00:11;14.70;79.00
2190;DHT22;1101;51.056;7.262;2022-09-04T06:06:13;14.80;79.10
2190;DHT22;1101;51.056;7.262;2022-09-04T06:09:01;14.80;79.10
2190;DHT22;1101;51.056;7.262;2022-09-04T06:11:45;14.90;79.10
2190;DHT22;1101;51.056;7.262;2022-09-04T06:14:28;14.90;79.00
2190;DHT22;1101;51.056;7.262;2022-09-04T06:17:18;15.00;79.10
2190;DHT22;1101;51.056;7.262;2022-09-04T06:20:07;15.10;79.10
2190;DHT22;1101;51.056;7.262;2022-09-04T06:25:55;15.20;79.10
2190;DHT22;1101;51.056;7.262;2022-09-04T06:28:49;15.20;79.10
2190;DHT22;1101;51.056;7.262;2022-09-04T06:37:59;15.40;78.90
2190;DHT22;1101;51.056;7.262;2022-09-04T06:40:47;15.50;79.00
2190;DHT22;1101;51.056;7.262;2022-09-04T06:43:25;15.60;79.10
2190;DHT22;1101;51.056;7.262;2022-09-04T06:46:04;15.70;79.10
2190;DHT22;1101;51.056;7.262;2022-09-04T06:48:43;15.70;78.90
2190;DHT22;1101;51.056;7.262;2022-09-04T06:51:26;15.80;78.80
2190;DHT22;1101;51.056;7.262;2022-09-04T06:54:08;15.90;78.70
2190;DHT22;1101;51.056;7.262;2022-09-04T06:56:53;16.00;78.70
2190;DHT22;1101;51.056;7.262;2022-09-04T06:59:47;16.10;78.70
2190;DHT22;1101;51.056;7.262;2022-09-04T07:02:36;16.10;78.50
2190;DHT22;1101;51.056;7.262;2022-09-04T07:05:14;16.20;78.50
2190;DHT22;1101;51.056;7.262;2022-09-04T07:07:52;16.30;78.50
2190;DHT22;1101;51.056;7.262;2022-09-04T07:10:27;16.40;78.50
2190;DHT22;1101;51.056;7.262;2022-09-04T07:13:19;16.40;78.50
2190;DHT22;1101;51.056;7.262;2022-09-04T07:16:02;16.50;78.70
2190;DHT22;1101;51.056;7.262;2022-09-04T07:21:49;16.60;78.60
2190;DHT22;1101;51.056;7.262;2022-09-04T07:27:39;16.80;78.50
2190;DHT22;1101;51.056;7.262;2022-09-04T07:30:12;16.90;78.40
2190;DHT22;1101;51.056;7.262;2022-09-04T07:32:45;16.90;78.40
2190;DHT22;1101;51.056;7.262;2022-09-04T07:35:19;17.00;78.50
2190;DHT22;1101;51.056;7.262;2022-09-04T07:37:54;17.10;78.50
2190;DHT22;1101;51.056;7.262;2022-09-04T07:40:28;17.20;78.40
2190;DHT22;1101;51.056;7.262;2022-09-04T07:43:06;17.20;78.30
2190;DHT22;1101;51.056;7.262;2022-09-04T07:45:39;17.30;78.30
2190;DHT22;1101;51.056;7.262;2022-09-04T07:48:24;17.40;78.40
2190;DHT22;1101;51.056;7.262;2022-09-04T07:50:57;17.50;78.30
2190;DHT22;1101;51.056;7.262;2022-09-04T07:53:57;17.60;78.40
2190;DHT22;1101;51.056;7.262;2022-09-04T07:56:45;17.70;78.30
2190;DHT22;1101;51.056;7.262;2022-09-04T07:59:43;17.80;78.30
2190;DHT22;1101;51.056;7.262;2022-09-04T08:02:34;17.90;78.30
2190;DHT22;1101;51.056;7.262;2022-09-04T08:05:18;18.00;78.30
2190;DHT22;1101;51.056;7.262;2022-09-04T08:08:06;18.10;79.00
2190;DHT22;1101;51.056;7.262;2022-09-04T08:10:38;18.20;78.40
2190;DHT22;1101;51.056;7.262;2022-09-04T08:13:33;18.30;78.30
2190;DHT22;1101;51.056;7.262;2022-09-04T08:16:07;18.40;78.30
2190;DHT22;1101;51.056;7.262;2022-09-04T08:19:03;18.50;78.30
2190;DHT22;1101;51.056;7.262;2022-09-04T08:21:36;18.60;78.20
2190;DHT22;1101;51.056;7.262;2022-09-04T08:24:48;18.70;78.20
2190;DHT22;1101;51.056;7.262;2022-09-04T08:27:33;18.80;78.30
2190;DHT22;1101;51.056;7.262;2022-09-04T08:30:11;18.90;78.20
2190;DHT22;1101;51.056;7.262;2022-09-04T08:32:59;19.00;78.20
2190;DHT22;1101;51.056;7.262;2022-09-04T08:35:41;19.10;78.20
2190;DHT22;1101;51.056;7.262;2022-09-04T08:38:34;19.20;78.10
2190;DHT22;1101;51.056;7.262;2022-09-04T08:45:11;19.40;78.10
2190;DHT22;1101;51.056;7.262;2022-09-04T08:48:10;19.50;78.00
2190;DHT22;1101;51.056;7.262;2022-09-04T08:51:34;19.60;77.90
2190;DHT22;1101;51.056;7.262;2022-09-04T08:57:37;19.80;77.80
2190;DHT22;1101;51.056;7.262;2022-09-04T09:00:10;19.90;77.80
2190;DHT22;1101;51.056;7.262;2022-09-04T09:06:18;20.10;77.80
2190;DHT22;1101;51.056;7.262;2022-09-04T09:12:32;20.30;77.60
2190;DHT22;1101;51.056;7.262;2022-09-04T09:15:24;20.50;77.70
2190;DHT22;1101;51.056;7.262;2022-09-04T09:18:02;20.60;77.70
2190;DHT22;1101;51.056;7.262;2022-09-04T09:20:44;20.60;77.50
2190;DHT22;1101;51.056;7.262;2022-09-04T09:23:16;20.80;77.50
2190;DHT22;1101;51.056;7.262;2022-09-04T09:25:49;20.80;77.50
2190;DHT22;1101;51.056;7.262;2022-09-04T09:28:44;21.00;77.60
2190;DHT22;1101;51.056;7.262;2022-09-04T09:34:55;21.20;77.40
2190;DHT22;1101;51.056;7.262;2022-09-04T09:44:04;21.50;77.20
2190;DHT22;1101;51.056;7.262;2022-09-04T09:47:09;21.60;77.10
2190;DHT22;1101;51.056;7.262;2022-09-04T09:50:02;21.70;77.10
2190;DHT22;1101;51.056;7.262;2022-09-04T09:56:01;21.90;77.00
2190;DHT22;1101;51.056;7.262;2022-09-04T10:01:44;22.10;76.90
2190;DHT22;1101;51.056;7.262;2022-09-04T10:10:58;22.50;76.80
2190;DHT22;1101;51.056;7.262;2022-09-04T10:14:03;22.60;76.70
2190;DHT22;1101;51.056;7.262;2022-09-04T10:17:00;22.70;76.70
2190;DHT22;1101;51.056;7.262;2022-09-04T10:20:00;22.80;76.50
2190;DHT22;1101;51.056;7.262;2022-09-04T10:22:58;23.00;76.50
2190;DHT22;1101;51.056;7.262;2022-09-04T10:26:14;23.10;76.30
2190;DHT22;1101;51.056;7.262;2022-09-04T10:29:26;23.20;76.20
2190;DHT22;1101;51.056;7.262;2022-09-04T10:32:10;23.20;76.00
2190;DHT22;1101;51.056;7.262;2022-09-04T10:37:54;23.40;76.00
2190;DHT22;1101;51.056;7.262;2022-09-04T10:40:26;23.50;75.80
2190;DHT22;1101;51.056;7.262;2022-09-04T10:43:24;23.60;75.80
2190;DHT22;1101;51.056;7.262;2022-09-04T10:46:00;23.70;75.70
2190;DHT22;1101;51.056;7.262;2022-09-04T10:48:54;23.80;75.60
2190;DHT22;1101;51.056;7.262;2022-09-04T10:51:53;23.90;75.40
2190;DHT22;1101;51.056;7.262;2022-09-04T10:54:56;24.00;75.20
2190;DHT22;1101;51.056;7.262;2022-09-04T10:57:54;24.10;75.20
2190;DHT22;1101;51.056;7.262;2022-09-04T11:00:30;24.10;75.20
2190;DHT22;1101;51.056;7.262;2022-09-04T11:03:26;24.20;75.20
2190;DHT22;1101;51.056;7.262;2022-09-04T11:06:20;24.30;75.10
2190;DHT22;1101;51.056;7.262;2022-09-04T11:09:10;24.30;74.90
2190;DHT22;1101;51.056;7.262;2022-09-04T11:11:57;24.10;74.70
2190;DHT22;1101;51.056;7.262;2022-09-04T11:14:45;24.10;74.90
2190;DHT22;1101;51.056;7.262;2022-09-04T11:17:41;24.00;75.10
2190;DHT22;1101;51.056;7.262;2022-09-04T11:20:54;24.10;75.20
2190;DHT22;1101;51.056;7.262;2022-09-04T11:29:58;24.50;74.60
2190;DHT22;1101;51.056;7.262;2022-09-04T11:33:00;24.70;74.60
2190;DHT22;1101;51.056;7.262;2022-09-04T11:36:07;24.90;74.40
2190;DHT22;1101;51.056;7.262;2022-09-04T11:42:00;25.30;73.80
2190;DHT22;1101;51.056;7.262;2022-09-04T11:44:46;25.40;73.40
2190;DHT22;1101;51.056;7.262;2022-09-04T11:47:29;25.40;73.40
2190;DHT22;1101;51.056;7.262;2022-09-04T11:50:27;25.30;73.20
2190;DHT22;1101;51.056;7.262;2022-09-04T11:53:21;25.20;73.40
2190;DHT22;1101;51.056;7.262;2022-09-04T11:56:14;25.10;73.40
2190;DHT22;1101;51.056;7.262;2022-09-04T11:59:11;25.00;73.50
2190;DHT22;1101;51.056;7.262;2022-09-04T12:04:54;24.90;73.70
2190;DHT22;1101;51.056;7.262;2022-09-04T12:07:42;24.90;73.80
2190;DHT22;1101;51.056;7.262;2022-09-04T12:10:22;25.00;73.80
2190;DHT22;1101;51.056;7.262;2022-09-04T12:13:16;25.20;73.60
2190;DHT22;1101;51.056;7.262;2022-09-04T12:16:03;25.40;73.10
2190;DHT22;1101;51.056;7.262;2022-09-04T12:18:56;25.50;73.00
2190;DHT22;1101;51.056;7.262;2022-09-04T13:16:20;27.20;69.60
2190;DHT22;1101;51.056;7.262;2022-09-04T13:19:02;27.20;69.40
2190;DHT22;1101;51.056;7.262;2022-09-04T13:21:55;27.10;69.60
2190;DHT22;1101;51.056;7.262;2022-09-04T13:24:35;27.10;69.50
2190;DHT22;1101;51.056;7.262;2022-09-04T13:27:21;27.20;69.30
2190;DHT22;1101;51.056;7.262;2022-09-04T13:30:04;27.20;69.00
2190;DHT22;1101;51.056;7.262;2022-09-04T13:32:42;27.20;69.00
2190;DHT22;1101;51.056;7.262;2022-09-04T13:35:19;27.30;69.00
2190;DHT22;1101;51.056;7.262;2022-09-04T13:38:07;27.40;68.90
2190;DHT22;1101;51.056;7.262;2022-09-04T13:44:03;27.30;68.40
2190;DHT22;1101;51.056;7.262;2022-09-04T13:46:37;27.20;69.10
2190;DHT22;1101;51.056;7.262;2022-09-04T13:49:12;27.10;68.30
2190;DHT22;1101;51.056;7.262;2022-09-04T13:51:46;27.00;68.30
2190;DHT22;1101;51.056;7.262;2022-09-04T13:54:18;27.00;68.40
2190;DHT22;1101;51.056;7.262;2022-09-04T13:56:55;26.90;68.20
2190;DHT22;1101;51.056;7.262;2022-09-04T13:59:24;26.90;68.40
2190;DHT22;1101;51.056;7.262;2022-09-04T14:01:56;26.90;68.30
2190;DHT22;1101;51.056;7.262;2022-09-04T14:04:30;26.90;68.30
2190;DHT22;1101;51.056;7.262;2022-09-04T14:07:04;26.80;68.30
2190;DHT22;1101;51.056;7.262;2022-09-04T14:09:38;26.80;68.40
2190;DHT22;1101;51.056;7.262;2022-09-04T14:12:23;26.80;68.10
2190;DHT22;1101;51.056;7.262;2022-09-04T14:15:27;26.80;67.80
2190;DHT22;1101;51.056;7.262;2022-09-04T14:18:14;26.70;68.20
2190;DHT22;1101;51.056;7.262;2022-09-04T14:20:51;26.60;68.20
2190;DHT22;1101;51.056;7.262;2022-09-04T14:23:36;26.60;68.10
2190;DHT22;1101;51.056;7.262;2022-09-04T14:26:15;26.50;68.30
2190;DHT22;1101;51.056;7.262;2022-09-04T14:28:52;26.40;68.20
2190;DHT22;1101;51.056;7.262;2022-09-04T14:31:27;26.40;68.00
2190;DHT22;1101;51.056;7.262;2022-09-04T14:34:04;26.40;68.40
2190;DHT22;1101;51.056;7.262;2022-09-04T14:36:48;26.30;68.30
2190;DHT22;1101;51.056;7.262;2022-09-04T14:39:26;26.30;68.50
2190;DHT22;1101;51.056;7.262;2022-09-04T14:42:10;26.20;68.30
2190;DHT22;1101;51.056;7.262;2022-09-04T14:44:59;26.30;68.30
2190;DHT22;1101;51.056;7.262;2022-09-04T14:47:42;26.20;68.20
2190;DHT22;1101;51.056;7.262;2022-09-04T14:50:15;26.30;68.40
2190;DHT22;1101;51.056;7.262;2022-09-04T14:52:47;26.40;68.40
2190;DHT22;1101;51.056;7.262;2022-09-04T14:55:22;26.40;68.40
2190;DHT22;1101;51.056;7.262;2022-09-04T14:57:54;26.50;68.40
2190;DHT22;1101;51.056;7.262;2022-09-04T15:00:25;26.60;68.20
2190;DHT22;1101;51.056;7.262;2022-09-04T15:03:00;26.70;68.00
2190;DHT22;1101;51.056;7.262;2022-09-04T15:05:34;26.70;68.00
2190;DHT22;1101;51.056;7.262;2022-09-04T15:08:06;26.80;67.80
2190;DHT22;1101;51.056;7.262;2022-09-04T15:10:42;26.90;67.80
2190;DHT22;1101;51.056;7.262;2022-09-04T15:13:32;27.00;67.60
2190;DHT22;1101;51.056;7.262;2022-09-04T15:16:15;27.00;67.50
2190;DHT22;1101;51.056;7.262;2022-09-04T15:18:53;27.00;67.50
2190;DHT22;1101;51.056;7.262;2022-09-04T15:21:29;27.10;67.50
2190;DHT22;1101;51.056;7.262;2022-09-04T15:24:10;27.00;67.30
2190;DHT22;1101;51.056;7.262;2022-09-04T15:26:43;27.00;67.20
2190;DHT22;1101;51.056;7.262;2022-09-04T15:29:15;27.00;67.30
2190;DHT22;1101;51.056;7.262;2022-09-04T15:31:45;26.90;67.20
2190;DHT22;1101;51.056;7.262;2022-09-04T15:34:19;26.90;67.20
2190;DHT22;1101;51.056;7.262;2022-09-04T15:36:48;26.80;67.20
2190;DHT22;1101;51.056;7.262;2022-09-04T15:39:27;26.80;67.40
2190;DHT22;1101;51.056;7.262;2022-09-04T15:41:58;26.80;67.30
2190;DHT22;1101;51.056;7.262;2022-09-04T15:44:31;26.80;67.00
2190;DHT22;1101;51.056;7.262;2022-09-04T15:47:04;26.70;67.00
2190;DHT22;1101;51.056;7.262;2022-09-04T15:49:41;26.70;67.40
2190;DHT22;1101;51.056;7.262;2022-09-04T15:52:28;26.60;67.20
2190;DHT22;1101;51.056;7.262;2022-09-04T15:55:08;26.60;67.20
2190;DHT22;1101;51.056;7.262;2022-09-04T15:57:47;26.50;67.30
2190;DHT22;1101;51.056;7.262;2022-09-04T16:00:21;26.50;67.40
2190;DHT22;1101;51.056;7.262;2022-09-04T16:02:53;26.40;67.50
2190;DHT22;1101;51.056;7.262;2022-09-04T16:05:29;26.40;67.60
2190;DHT22;1101;51.056;7.262;2022-09-04T16:08:10;26.30;67.50
2190;DHT22;1101;51.056;7.262;2022-09-04T16:10:55;26.30;67.50
2190;DHT22;1101;51.056;7.262;2022-09-04T16:13:39;26.20;67.60
2190;DHT22;1101;51.056;7.262;2022-09-04T16:16:11;26.20;67.60
2190;DHT22;1101;51.056;7.262;2022-09-04T16:18:51;26.10;67.70
2190;DHT22;1101;51.056;7.262;2022-09-04T16:21:28;26.10;67.60
2190;DHT22;1101;51.056;7.262;2022-09-04T16:24:05;26.10;67.60
2190;DHT22;1101;51.056;7.262;2022-09-04T16:26:36;26.00;67.50
2190;DHT22;1101;51.056;7.262;2022-09-04T16:29:06;26.00;67.50
2190;DHT22;1101;51.056;7.262;2022-09-04T16:31:41;26.00;67.40
2190;DHT22;1101;51.056;7.262;2022-09-04T16:34:20;25.90;67.30
2190;DHT22;1101;51.056;7.262;2022-09-04T16:36:52;25.90;67.30
2190;DHT22;1101;51.056;7.262;2022-09-04T16:39:28;25.90;67.50
2190;DHT22;1101;51.056;7.262;2022-09-04T16:42:14;25.90;68.20
2190;DHT22;1101;51.056;7.262;2022-09-04T16:44:46;25.80;67.40
2190;DHT22;1101;51.056;7.262;2022-09-04T16:47:20;25.80;67.50
2190;DHT22;1101;51.056;7.262;2022-09-04T16:49:55;25.70;67.50
2190;DHT22;1101;51.056;7.262;2022-09-04T16:52:41;25.70;67.50
2190;DHT22;1101;51.056;7.262;2022-09-04T16:55:13;25.70;67.60
2190;DHT22;1101;51.056;7.262;2022-09-04T16:57:49;25.60;67.60
2190;DHT22;1101;51.056;7.262;2022-09-04T17:00:20;25.60;67.80
2190;DHT22;1101;51.056;7.262;2022-09-04T17:02:53;25.60;67.80
2190;DHT22;1101;51.056;7.262;2022-09-04T17:05:25;25.50;67.80
2190;DHT22;1101;51.056;7.262;2022-09-04T17:08:11;25.50;67.80
2190;DHT22;1101;51.056;7.262;2022-09-04T17:10:45;25.40;67.80
2190;DHT22;1101;51.056;7.262;2022-09-04T17:13:20;25.40;68.00
2190;DHT22;1101;51.056;7.262;2022-09-04T17:15:57;25.30;68.00
2190;DHT22;1101;51.056;7.262;2022-09-04T17:18:29;25.30;68.20
2190;DHT22;1101;51.056;7.262;2022-09-04T17:21:02;25.30;68.40
2190;DHT22;1101;51.056;7.262;2022-09-04T17:23:53;25.20;68.40
2190;DHT22;1101;51.056;7.262;2022-09-04T17:26:48;25.10;68.40
2190;DHT22;1101;51.056;7.262;2022-09-04T17:29:44;25.10;68.50
2190;DHT22;1101;51.056;7.262;2022-09-04T17:32:18;25.00;68.60
2190;DHT22;1101;51.056;7.262;2022-09-04T17:35:16;24.90;68.70
2190;DHT22;1101;51.056;7.262;2022-09-04T17:38:11;24.90;68.80
2190;DHT22;1101;51.056;7.262;2022-09-04T17:41:11;24.80;68.80
2190;DHT22;1101;51.056;7.262;2022-09-04T17:44:19;24.70;68.70
2190;DHT22;1101;51.056;7.262;2022-09-04T17:46:58;24.60;68.80
2190;DHT22;1101;51.056;7.262;2022-09-04T17:49:31;24.60;68.90
2190;DHT22;1101;51.056;7.262;2022-09-04T17:52:03;24.50;68.90
2190;DHT22;1101;51.056;7.262;2022-09-04T17:54:38;24.40;68.90
2190;DHT22;1101;51.056;7.262;2022-09-04T17:57:17;24.30;69.00
2190;DHT22;1101;51.056;7.262;2022-09-04T17:59:52;24.30;69.10
2190;DHT22;1101;51.056;7.262;2022-09-04T18:02:29;24.20;69.10
2190;DHT22;1101;51.056;7.262;2022-09-04T18:05:12;24.10;69.20
2190;DHT22;1101;51.056;7.262;2022-09-04T18:07:43;24.00;69.20
2190;DHT22;1101;51.056;7.262;2022-09-04T18:10:45;24.00;69.20
2190;DHT22;1101;51.056;7.262;2022-09-04T18:13:17;23.90;69.20
2190;DHT22;1101;51.056;7.262;2022-09-04T18:16:31;23.80;69.20
2190;DHT22;1101;51.056;7.262;2022-09-04T18:19:24;23.70;69.30
2190;DHT22;1101;51.056;7.262;2022-09-04T18:21:55;23.60;69.30
2190;DHT22;1101;51.056;7.262;2022-09-04T18:24:48;23.50;69.40
2190;DHT22;1101;51.056;7.262;2022-09-04T18:27:21;23.40;69.40
2190;DHT22;1101;51.056;7.262;2022-09-04T18:29:56;23.40;69.50
2190;DHT22;1101;51.056;7.262;2022-09-04T18:32:48;23.30;69.50
2190;DHT22;1101;51.056;7.262;2022-09-04T18:35:51;23.20;69.50
2190;DHT22;1101;51.056;7.262;2022-09-04T18:38:43;23.10;69.50
2190;DHT22;1101;51.056;7.262;2022-09-04T18:41:48;23.00;69.60
2190;DHT22;1101;51.056;7.262;2022-09-04T18:44:41;23.00;69.80
2190;DHT22;1101;51.056;7.262;2022-09-04T18:47:37;22.90;69.80
2190;DHT22;1101;51.056;7.262;2022-09-04T18:50:30;22.80;69.90
2190;DHT22;1101;51.056;7.262;2022-09-04T18:53:25;22.70;69.90
2190;DHT22;1101;51.056;7.262;2022-09-04T18:55:57;22.60;70.00
2190;DHT22;1101;51.056;7.262;2022-09-04T18:58:50;22.60;70.00
2190;DHT22;1101;51.056;7.262;2022-09-04T19:01:25;22.50;70.10
2190;DHT22;1101;51.056;7.262;2022-09-04T19:03:55;22.40;70.20
2190;DHT22;1101;51.056;7.262;2022-09-04T19:06:30;22.30;70.20
2190;DHT22;1101;51.056;7.262;2022-09-04T19:09:08;22.30;70.30
2190;DHT22;1101;51.056;7.262;2022-09-04T19:11:42;22.20;70.30
2190;DHT22;1101;51.056;7.262;2022-09-04T19:14:15;22.10;71.10
2190;DHT22;1101;51.056;7.262;2022-09-04T19:16:47;22.10;70.50
2190;DHT22;1101;51.056;7.262;2022-09-04T19:19:19;22.00;70.60
2190;DHT22;1101;51.056;7.262;2022-09-04T19:22:00;22.00;70.70
2190;DHT22;1101;51.056;7.262;2022-09-04T19:24:35;21.90;70.70
2190;DHT22;1101;51.056;7.262;2022-09-04T19:27:21;21.80;70.70
2190;DHT22;1101;51.056;7.262;2022-09-04T19:29:57;21.70;70.70
2190;DHT22;1101;51.056;7.262;2022-09-04T19:32:57;21.70;71.00
2190;DHT22;1101;51.056;7.262;2022-09-04T19:35:32;21.60;71.10
2190;DHT22;1101;51.056;7.262;2022-09-04T19:38:06;21.50;71.10
2190;DHT22;1101;51.056;7.262;2022-09-04T19:41:02;21.50;71.30
2190;DHT22;1101;51.056;7.262;2022-09-04T19:46:37;21.40;71.40
2190;DHT22;1101;51.056;7.262;2022-09-04T19:49:18;21.30;71.50
2190;DHT22;1101;51.056;7.262;2022-09-04T19:52:12;21.20;71.50
2190;DHT22;1101;51.056;7.262;2022-09-04T19:55:11;21.20;71.60
2190;DHT22;1101;51.056;7.262;2022-09-04T19:57:59;21.10;71.70
2190;DHT22;1101;51.056;7.262;2022-09-04T20:00:33;21.00;71.60